sensor_id;sensor_type;location;lat;lon;timestamp;P1;durP1;ratioP1;P2;durP2;ratioP2
15285;SDS011;7744;52.172;10.668;2023-04-25T00:02:21;7.90;;;4.37;;
15285;SDS011;7744;52.172;10.668;2023-04-25T00:04:47;9.20;;;4.40;;
15285;SDS011;7744;52.172;10.668;2023-04-25T00:07:14;10.97;;;4.50;;
15285;SDS011;7744;52.172;10.668;2023-04-25T00:09:41;8.50;;;4.30;;
15285;SDS011;7744;52.172;10.668;2023-04-25T00:12:08;10.37;;;4.70;;
15285;SDS011;7744;52.172;10.668;2023-04-25T00:14:35;6.97;;;4.17;;
15285;SDS011;7744;52.172;10.668;2023-04-25T00:17:02;7.93;;;4.23;;
15285;SDS011;7744;52.172;10.668;2023-04-25T00:19:29;8.80;;;4.80;;
15285;SDS011;7744;52.172;10.668;2023-04-25T00:21:55;8.17;;;4.70;;
15285;SDS011;7744;52.172;10.668;2023-04-25T00:24:21;9.30;;;4.50;;
15285;SDS011;7744;52.172;10.668;2023-04-25T00:26:54;10.80;;;5.00;;
15285;SDS011;7744;52.172;10.668;2023-04-25T00:29:20;9.20;;;4.03;;
15285;SDS011;7744;52.172;10.668;2023-04-25T00:31:45;8.67;;;4.20;;
15285;SDS011;7744;52.172;10.668;2023-04-25T00:34:11;9.37;;;4.37;;
15285;SDS011;7744;52.172;10.668;2023-04-25T00:36:47;10.47;;;4.87;;
15285;SDS011;7744;52.172;10.668;2023-04-25T00:41:54;8.90;;;4.97;;
15285;SDS011;7744;52.172;10.668;2023-04-25T00:44:23;7.93;;;4.73;;
15285;SDS011;7744;52.172;10.668;2023-04-25T00:47:18;7.97;;;3.93;;
15285;SDS011;7744;52.172;10.668;2023-04-25T00:49:44;8.27;;;4.47;;
15285;SDS011;7744;52.172;10.668;2023-04-25T00:52:46;8.30;;;4.23;;
15285;SDS011;7744;52.172;10.668;2023-04-25T00:55:12;8.67;;;4.37;;
15285;SDS011;7744;52.172;10.668;2023-04-25T00:57:44;7.87;;;4.47;;
15285;SDS011;7744;52.172;10.668;2023-04-25T01:00:18;9.10;;;5.10;;
15285;SDS011;7744;52.172;10.668;2023-04-25T01:02:51;9.87;;;5.27;;
15285;SDS011;7744;52.172;10.668;2023-04-25T01:05:26;8.27;;;4.90;;
15285;SDS011;7744;52.172;10.668;2023-04-25T01:08:13;7.70;;;4.17;;
15285;SDS011;7744;52.172;10.668;2023-04-25T01:10:39;10.23;;;4.90;;
15285;SDS011;7744;52.172;10.668;2023-04-25T01:13:07;11.70;;;5.30;;
15285;SDS011;7744;52.172;10.668;2023-04-25T01:15:33;7.40;;;4.53;;
15285;SDS011;7744;52.172;10.668;2023-04-25T01:18:05;9.43;;;5.77;;
15285;SDS011;7744;52.172;10.668;2023-04-25T01:20:32;10.23;;;4.70;;
15285;SDS011;7744;52.172;10.668;2023-04-25T01:23:02;6.57;;;4.03;;
15285;SDS011;7744;52.172;10.668;2023-04-25T01:25:28;12.20;;;4.77;;
15285;SDS011;7744;52.172;10.668;2023-04-25T01:27:55;8.23;;;4.70;;
15285;SDS011;7744;52.172;10.668;2023-04-25T01:30:21;9.80;;;4.53;;
15285;SDS011;7744;52.172;10.668;2023-04-25T01:32:47;10.03;;;4.47;;
15285;SDS011;7744;52.172;10.668;2023-04-25T01:35:14;12.17;;;4.97;;
15285;SDS011;7744;52.172;10.668;2023-04-25T01:37:40;9.33;;;4.73;;
15285;SDS011;7744;52.172;10.668;2023-04-25T01:40:07;8.03;;;4.63;;
15285;SDS011;7744;52.172;10.668;2023-04-25T01:42:34;8.60;;;5.30;;
15285;SDS011;7744;52.172;10.668;2023-04-25T01:45:02;8.77;;;4.80;;
15285;SDS011;7744;52.172;10.668;2023-04-25T01:47:28;8.57;;;4.47;;
15285;SDS011;7744;52.172;10.668;2023-04-25T01:49:55;7.00;;;4.53;;
15285;SDS011;7744;52.172;10.668;2023-04-25T01:52:33;16.37;;;6.37;;
15285;SDS011;7744;52.172;10.668;2023-04-25T01:55:00;12.53;;;5.00;;
15285;SDS011;7744;52.172;10.668;2023-04-25T01:57:27;8.23;;;4.60;;
15285;SDS011;7744;52.172;10.668;2023-04-25T02:00:00;6.73;;;4.67;;
15285;SDS011;7744;52.172;10.668;2023-04-25T02:02:28;9.30;;;5.40;;
15285;SDS011;7744;52.172;10.668;2023-04-25T02:04:54;11.57;;;5.67;;
15285;SDS011;7744;52.172;10.668;2023-04-25T02:07:20;9.70;;;5.47;;
15285;SDS011;7744;52.172;10.668;2023-04-25T02:09:45;8.80;;;5.00;;
15285;SDS011;7744;52.172;10.668;2023-04-25T02:12:11;12.10;;;5.93;;
15285;SDS011;7744;52.172;10.668;2023-04-25T02:14:38;9.33;;;5.20;;
15285;SDS011;7744;52.172;10.668;2023-04-25T02:17:04;10.90;;;4.80;;
15285;SDS011;7744;52.172;10.668;2023-04-25T02:19:30;8.47;;;5.10;;
15285;SDS011;7744;52.172;10.668;2023-04-25T02:21:56;9.10;;;4.53;;
15285;SDS011;7744;52.172;10.668;2023-04-25T02:24:23;7.37;;;5.27;;
15285;SDS011;7744;52.172;10.668;2023-04-25T02:26:49;10.63;;;4.53;;
15285;SDS011;7744;52.172;10.668;2023-04-25T02:29:14;10.47;;;5.47;;
15285;SDS011;7744;52.172;10.668;2023-04-25T02:31:40;9.10;;;4.90;;
15285;SDS011;7744;52.172;10.668;2023-04-25T02:34:06;10.93;;;5.20;;
15285;SDS011;7744;52.172;10.668;2023-04-25T02:36:32;8.17;;;4.97;;
15285;SDS011;7744;52.172;10.668;2023-04-25T02:39:02;8.83;;;4.90;;
15285;SDS011;7744;52.172;10.668;2023-04-25T02:41:28;8.87;;;5.00;;
15285;SDS011;7744;52.172;10.668;2023-04-25T02:43:53;8.23;;;5.17;;
15285;SDS011;7744;52.172;10.668;2023-04-25T02:46:20;9.83;;;5.37;;
15285;SDS011;7744;52.172;10.668;2023-04-25T02:48:46;8.73;;;5.10;;
15285;SDS011;7744;52.172;10.668;2023-04-25T02:51:13;8.87;;;5.10;;
15285;SDS011;7744;52.172;10.668;2023-04-25T02:53:41;10.27;;;5.67;;
15285;SDS011;7744;52.172;10.668;2023-04-25T02:56:07;11.90;;;5.60;;
15285;SDS011;7744;52.172;10.668;2023-04-25T02:58:32;12.53;;;6.13;;
15285;SDS011;7744;52.172;10.668;2023-04-25T03:00:58;10.17;;;5.90;;
15285;SDS011;7744;52.172;10.668;2023-04-25T03:03:25;9.20;;;5.53;;
15285;SDS011;7744;52.172;10.668;2023-04-25T03:06:00;11.80;;;5.40;;
15285;SDS011;7744;52.172;10.668;2023-04-25T03:08:27;11.97;;;6.53;;
15285;SDS011;7744;52.172;10.668;2023-04-25T03:10:57;9.33;;;6.03;;
15285;SDS011;7744;52.172;10.668;2023-04-25T03:13:23;8.13;;;5.33;;
15285;SDS011;7744;52.172;10.668;2023-04-25T03:15:49;9.17;;;5.57;;
15285;SDS011;7744;52.172;10.668;2023-04-25T03:18:15;10.90;;;6.00;;
15285;SDS011;7744;52.172;10.668;2023-04-25T03:20:40;11.57;;;6.23;;
15285;SDS011;7744;52.172;10.668;2023-04-25T03:23:07;11.50;;;6.10;;
15285;SDS011;7744;52.172;10.668;2023-04-25T03:25:33;9.60;;;6.30;;
15285;SDS011;7744;52.172;10.668;2023-04-25T03:27:59;11.43;;;6.57;;
15285;SDS011;7744;52.172;10.668;2023-04-25T03:30:24;8.43;;;6.47;;
15285;SDS011;7744;52.172;10.668;2023-04-25T03:32:50;12.43;;;7.00;;
15285;SDS011;7744;52.172;10.668;2023-04-25T03:35:17;11.03;;;5.97;;
15285;SDS011;7744;52.172;10.668;2023-04-25T03:37:44;11.57;;;6.73;;
15285;SDS011;7744;52.172;10.668;2023-04-25T03:40:12;10.50;;;6.27;;
15285;SDS011;7744;52.172;10.668;2023-04-25T03:42:38;10.17;;;6.47;;
15285;SDS011;7744;52.172;10.668;2023-04-25T03:45:03;12.13;;;6.27;;
15285;SDS011;7744;52.172;10.668;2023-04-25T03:47:33;10.63;;;5.93;;
15285;SDS011;7744;52.172;10.668;2023-04-25T03:49:59;9.60;;;6.37;;
15285;SDS011;7744;52.172;10.668;2023-04-25T15:18:31;2.03;;;1.10;;
15285;SDS011;7744;52.172;10.668;2023-04-25T15:21:06;4.70;;;1.43;;
15285;SDS011;7744;52.172;10.668;2023-04-25T15:23:35;2.80;;;1.30;;
15285;SDS011;7744;52.172;10.668;2023-04-25T15:26:01;5.50;;;1.90;;
15285;SDS011;7744;52.172;10.668;2023-04-25T15:28:26;3.27;;;1.43;;
15285;SDS011;7744;52.172;10.668;2023-04-25T15:30:52;4.00;;;1.60;;
15285;SDS011;7744;52.172;10.668;2023-04-25T15:33:18;4.87;;;1.57;;
15285;SDS011;7744;52.172;10.668;2023-04-25T15:35:44;4.23;;;1.80;;
15285;SDS011;7744;52.172;10.668;2023-04-25T15:38:09;4.67;;;1.80;;
15285;SDS011;7744;52.172;10.668;2023-04-25T15:40:36;4.63;;;2.30;;
15285;SDS011;7744;52.172;10.668;2023-04-25T15:43:01;3.63;;;1.50;;
15285;SDS011;7744;52.172;10.668;2023-04-25T15:45:27;4.40;;;1.50;;
15285;SDS011;7744;52.172;10.668;2023-04-25T15:47:54;3.70;;;1.50;;
15285;SDS011;7744;52.172;10.668;2023-04-25T15:50:21;2.10;;;1.13;;
15285;SDS011;7744;52.172;10.668;2023-04-25T15:52:50;2.27;;;1.27;;
15285;SDS011;7744;52.172;10.668;2023-04-25T15:55:16;2.70;;;1.47;;
15285;SDS011;7744;52.172;10.668;2023-04-25T15:57:43;2.00;;;1.10;;
15285;SDS011;7744;52.172;10.668;2023-04-25T16:00:09;2.50;;;1.00;;
15285;SDS011;7744;52.172;10.668;2023-04-25T16:02:39;4.77;;;1.23;;
15285;SDS011;7744;52.172;10.668;2023-04-25T16:05:06;3.70;;;1.30;;
15285;SDS011;7744;52.172;10.668;2023-04-25T16:07:33;3.13;;;1.10;;
15285;SDS011;7744;52.172;10.668;2023-04-25T16:09:59;2.63;;;1.10;;
15285;SDS011;7744;52.172;10.668;2023-04-25T16:12:24;2.17;;;1.00;;
15285;SDS011;7744;52.172;10.668;2023-04-25T16:14:50;2.73;;;1.20;;
15285;SDS011;7744;52.172;10.668;2023-04-25T16:17:15;2.47;;;1.33;;
15285;SDS011;7744;52.172;10.668;2023-04-25T16:19:41;2.03;;;1.00;;
15285;SDS011;7744;52.172;10.668;2023-04-25T16:22:06;4.63;;;1.33;;
15285;SDS011;7744;52.172;10.668;2023-04-25T16:24:33;3.40;;;1.67;;
15285;SDS011;7744;52.172;10.668;2023-04-25T16:26:59;5.23;;;2.60;;
15285;SDS011;7744;52.172;10.668;2023-04-25T16:29:25;4.57;;;1.87;;
15285;SDS011;7744;52.172;10.668;2023-04-25T16:31:50;2.20;;;1.10;;
15285;SDS011;7744;52.172;10.668;2023-04-25T16:34:16;3.37;;;1.67;;
15285;SDS011;7744;52.172;10.668;2023-04-25T16:36:41;3.80;;;1.57;;
15285;SDS011;7744;52.172;10.668;2023-04-25T16:39:07;3.20;;;1.30;;
15285;SDS011;7744;52.172;10.668;2023-04-25T16:41:32;2.83;;;1.40;;
15285;SDS011;7744;52.172;10.668;2023-04-25T16:43:58;3.10;;;1.40;;
15285;SDS011;7744;52.172;10.668;2023-04-25T16:46:24;3.40;;;1.20;;
15285;SDS011;7744;52.172;10.668;2023-04-25T16:48:50;3.27;;;1.57;;
15285;SDS011;7744;52.172;10.668;2023-04-25T16:51:15;3.97;;;1.30;;
15285;SDS011;7744;52.172;10.668;2023-04-25T16:53:41;3.37;;;1.50;;
15285;SDS011;7744;52.172;10.668;2023-04-25T16:56:07;2.90;;;1.40;;
15285;SDS011;7744;52.172;10.668;2023-04-25T16:58:34;3.63;;;1.60;;
15285;SDS011;7744;52.172;10.668;2023-04-25T17:04:20;3.67;;;1.80;;
15285;SDS011;7744;52.172;10.668;2023-04-25T17:06:46;3.77;;;1.70;;
15285;SDS011;7744;52.172;10.668;2023-04-25T17:09:12;2.87;;;1.43;;
15285;SDS011;7744;52.172;10.668;2023-04-25T17:11:37;4.77;;;1.67;;
15285;SDS011;7744;52.172;10.668;2023-04-25T17:14:06;2.93;;;1.40;;
15285;SDS011;7744;52.172;10.668;2023-04-25T17:16:51;4.00;;;1.40;;
15285;SDS011;7744;52.172;10.668;2023-04-25T17:19:17;4.70;;;1.90;;
15285;SDS011;7744;52.172;10.668;2023-04-25T17:21:43;4.37;;;1.67;;
15285;SDS011;7744;52.172;10.668;2023-04-25T17:24:08;2.70;;;1.20;;
15285;SDS011;7744;52.172;10.668;2023-04-25T17:26:35;3.87;;;1.53;;
15285;SDS011;7744;52.172;10.668;2023-04-25T17:29:04;3.10;;;1.30;;
15285;SDS011;7744;52.172;10.668;2023-04-25T17:31:30;3.27;;;1.60;;
15285;SDS011;7744;52.172;10.668;2023-04-25T17:33:56;2.50;;;1.30;;
15285;SDS011;7744;52.172;10.668;2023-04-25T17:36:22;3.47;;;1.07;;
15285;SDS011;7744;52.172;10.668;2023-04-25T17:38:48;2.43;;;1.23;;
15285;SDS011;7744;52.172;10.668;2023-04-25T17:41:14;2.43;;;1.20;;
15285;SDS011;7744;52.172;10.668;2023-04-25T17:43:39;2.43;;;1.10;;
15285;SDS011;7744;52.172;10.668;2023-04-25T17:46:05;3.13;;;1.10;;
15285;SDS011;7744;52.172;10.668;2023-04-25T17:48:31;2.67;;;1.10;;
15285;SDS011;7744;52.172;10.668;2023-04-25T17:50:56;2.17;;;0.97;;
15285;SDS011;7744;52.172;10.668;2023-04-25T17:53:22;1.43;;;1.20;;
15285;SDS011;7744;52.172;10.668;2023-04-25T17:55:48;1.90;;;1.33;;
15285;SDS011;7744;52.172;10.668;2023-04-25T17:58:14;3.60;;;1.33;;
15285;SDS011;7744;52.172;10.668;2023-04-25T18:00:40;2.67;;;1.10;;
15285;SDS011;7744;52.172;10.668;2023-04-25T18:03:06;3.87;;;1.43;;
15285;SDS011;7744;52.172;10.668;2023-04-25T18:05:33;3.60;;;1.50;;
15285;SDS011;7744;52.172;10.668;2023-04-25T18:07:58;4.00;;;1.30;;
15285;SDS011;7744;52.172;10.668;2023-04-25T18:10:24;2.30;;;1.30;;
15285;SDS011;7744;52.172;10.668;2023-04-25T18:12:50;2.03;;;1.10;;
15285;SDS011;7744;52.172;10.668;2023-04-25T18:15:15;3.67;;;1.23;;
15285;SDS011;7744;52.172;10.668;2023-04-25T18:17:41;3.00;;;1.40;;
15285;SDS011;7744;52.172;10.668;2023-04-25T18:20:08;2.27;;;1.20;;
15285;SDS011;7744;52.172;10.668;2023-04-25T18:22:38;1.87;;;1.30;;
15285;SDS011;7744;52.172;10.668;2023-04-25T18:25:04;2.37;;;1.30;;
15285;SDS011;7744;52.172;10.668;2023-04-25T18:27:32;2.70;;;1.57;;
15285;SDS011;7744;52.172;10.668;2023-04-25T18:29:57;5.17;;;2.10;;
15285;SDS011;7744;52.172;10.668;2023-04-25T18:32:24;4.80;;;2.10;;
15285;SDS011;7744;52.172;10.668;2023-04-25T18:34:52;2.60;;;1.23;;
15285;SDS011;7744;52.172;10.668;2023-04-25T18:37:18;5.80;;;2.00;;
15285;SDS011;7744;52.172;10.668;2023-04-25T18:39:45;3.40;;;1.50;;
15285;SDS011;7744;52.172;10.668;2023-04-25T18:42:10;3.63;;;1.77;;
15285;SDS011;7744;52.172;10.668;2023-04-25T18:44:36;5.73;;;1.63;;
15285;SDS011;7744;52.172;10.668;2023-04-25T18:47:04;3.30;;;1.60;;
15285;SDS011;7744;52.172;10.668;2023-04-25T18:49:31;5.90;;;1.57;;
15285;SDS011;7744;52.172;10.668;2023-04-25T18:51:57;3.17;;;1.40;;
15285;SDS011;7744;52.172;10.668;2023-04-25T18:54:23;2.17;;;1.37;;
15285;SDS011;7744;52.172;10.668;2023-04-25T18:56:49;3.70;;;1.67;;
15285;SDS011;7744;52.172;10.668;2023-04-25T18:59:15;5.93;;;2.07;;
15285;SDS011;7744;52.172;10.668;2023-04-25T19:01:54;4.43;;;2.07;;
15285;SDS011;7744;52.172;10.668;2023-04-25T19:04:19;4.73;;;2.00;;
15285;SDS011;7744;52.172;10.668;2023-04-25T19:06:45;4.18;;;1.95;;
15285;SDS011;7744;52.172;10.668;2023-04-25T19:09:13;3.40;;;1.73;;
15285;SDS011;7744;52.172;10.668;2023-04-25T19:11:39;5.23;;;2.33;;
15285;SDS011;7744;52.172;10.668;2023-04-25T19:14:05;4.18;;;2.13;;
15285;SDS011;7744;52.172;10.668;2023-04-25T19:16:30;5.80;;;2.30;;
15285;SDS011;7744;52.172;10.668;2023-04-25T19:19:02;3.77;;;2.37;;
15285;SDS011;7744;52.172;10.668;2023-04-25T19:21:29;8.23;;;2.77;;
15285;SDS011;7744;52.172;10.668;2023-04-25T19:23:56;6.97;;;2.60;;
15285;SDS011;7744;52.172;10.668;2023-04-25T19:26:22;6.87;;;2.53;;
15285;SDS011;7744;52.172;10.668;2023-04-25T19:29:01;5.65;;;2.50;;
15285;SDS011;7744;52.172;10.668;2023-04-25T19:31:34;5.75;;;2.80;;
15285;SDS011;7744;52.172;10.668;2023-04-25T19:34:02;5.97;;;2.70;;
15285;SDS011;7744;52.172;10.668;2023-04-25T19:36:28;7.25;;;3.70;;
15285;SDS011;7744;52.172;10.668;2023-04-25T19:38:54;5.67;;;2.67;;
15285;SDS011;7744;52.172;10.668;2023-04-25T19:41:26;6.72;;;3.50;;
15285;SDS011;7744;52.172;10.668;2023-04-25T19:43:52;5.63;;;3.23;;
15285;SDS011;7744;52.172;10.668;2023-04-25T19:46:17;5.30;;;2.20;;
15285;SDS011;7744;52.172;10.668;2023-04-25T19:48:43;4.20;;;2.30;;
15285;SDS011;7744;52.172;10.668;2023-04-25T19:51:08;7.87;;;2.70;;
15285;SDS011;7744;52.172;10.668;2023-04-25T19:53:34;5.73;;;2.60;;
15285;SDS011;7744;52.172;10.668;2023-04-25T19:56:00;4.80;;;2.50;;
15285;SDS011;7744;52.172;10.668;2023-04-25T19:58:26;5.80;;;2.67;;
15285;SDS011;7744;52.172;10.668;2023-04-25T20:00:52;7.57;;;2.90;;
15285;SDS011;7744;52.172;10.668;2023-04-25T20:03:17;6.43;;;2.90;;
15285;SDS011;7744;52.172;10.668;2023-04-25T20:05:43;4.43;;;2.83;;
15285;SDS011;7744;52.172;10.668;2023-04-25T20:08:08;7.10;;;2.80;;
15285;SDS011;7744;52.172;10.668;2023-04-25T20:10:34;5.60;;;2.57;;
15285;SDS011;7744;52.172;10.668;2023-04-25T20:13:01;4.73;;;2.40;;
15285;SDS011;7744;52.172;10.668;2023-04-25T20:15:26;5.60;;;2.70;;
15285;SDS011;7744;52.172;10.668;2023-04-25T20:17:52;5.97;;;2.57;;
15285;SDS011;7744;52.172;10.668;2023-04-25T20:20:17;4.17;;;2.10;;
15285;SDS011;7744;52.172;10.668;2023-04-25T20:22:44;8.30;;;2.63;;
15285;SDS011;7744;52.172;10.668;2023-04-25T20:25:09;5.57;;;2.23;;
15285;SDS011;7744;52.172;10.668;2023-04-25T20:27:37;6.63;;;2.60;;
15285;SDS011;7744;52.172;10.668;2023-04-25T20:30:09;4.80;;;2.20;;
15285;SDS011;7744;52.172;10.668;2023-04-25T20:35:06;6.07;;;2.33;;
15285;SDS011;7744;52.172;10.668;2023-04-25T20:37:33;5.67;;;2.30;;
15285;SDS011;7744;52.172;10.668;2023-04-25T20:39:59;6.97;;;2.73;;
15285;SDS011;7744;52.172;10.668;2023-04-25T20:42:26;6.23;;;2.60;;
15285;SDS011;7744;52.172;10.668;2023-04-25T20:44:52;5.93;;;2.50;;
15285;SDS011;7744;52.172;10.668;2023-04-25T20:47:18;5.43;;;2.30;;
15285;SDS011;7744;52.172;10.668;2023-04-25T20:49:44;3.97;;;2.10;;
15285;SDS011;7744;52.172;10.668;2023-04-25T20:52:10;6.07;;;2.43;;
15285;SDS011;7744;52.172;10.668;2023-04-25T20:54:36;5.17;;;2.10;;
15285;SDS011;7744;52.172;10.668;2023-04-25T20:57:01;3.83;;;2.23;;
15285;SDS011;7744;52.172;10.668;2023-04-25T20:59:27;5.13;;;2.17;;
15285;SDS011;7744;52.172;10.668;2023-04-25T21:01:53;4.90;;;2.17;;
15285;SDS011;7744;52.172;10.668;2023-04-25T21:04:19;5.93;;;2.00;;
15285;SDS011;7744;52.172;10.668;2023-04-25T21:06:44;6.13;;;2.10;;
15285;SDS011;7744;52.172;10.668;2023-04-25T21:09:10;5.00;;;2.00;;
15285;SDS011;7744;52.172;10.668;2023-04-25T21:11:37;5.97;;;1.80;;
15285;SDS011;7744;52.172;10.668;2023-04-25T21:14:03;6.03;;;1.80;;
15285;SDS011;7744;52.172;10.668;2023-04-25T21:16:29;5.97;;;2.00;;
15285;SDS011;7744;52.172;10.668;2023-04-25T21:18:57;6.50;;;1.90;;
15285;SDS011;7744;52.172;10.668;2023-04-25T21:21:23;2.83;;;1.70;;
15285;SDS011;7744;52.172;10.668;2023-04-25T21:23:48;5.47;;;1.83;;
15285;SDS011;7744;52.172;10.668;2023-04-25T21:26:14;5.67;;;1.87;;
15285;SDS011;7744;52.172;10.668;2023-04-25T21:28:40;4.30;;;1.90;;
15285;SDS011;7744;52.172;10.668;2023-04-25T21:31:06;3.63;;;1.90;;
15285;SDS011;7744;52.172;10.668;2023-04-25T21:33:31;4.70;;;2.17;;
15285;SDS011;7744;52.172;10.668;2023-04-25T21:35:57;4.57;;;1.77;;
15285;SDS011;7744;52.172;10.668;2023-04-25T21:38:23;5.07;;;1.80;;
15285;SDS011;7744;52.172;10.668;2023-04-25T21:40:49;2.47;;;1.40;;
15285;SDS011;7744;52.172;10.668;2023-04-25T21:43:14;5.87;;;2.13;;
15285;SDS011;7744;52.172;10.668;2023-04-25T21:45:40;5.50;;;1.90;;
15285;SDS011;7744;52.172;10.668;2023-04-25T21:48:05;5.73;;;2.20;;
15285;SDS011;7744;52.172;10.668;2023-04-25T21:50:31;7.03;;;2.13;;
15285;SDS011;7744;52.172;10.668;2023-04-25T21:52:57;4.60;;;2.10;;
15285;SDS011;7744;52.172;10.668;2023-04-25T21:55:23;6.67;;;2.50;;
15285;SDS011;7744;52.172;10.668;2023-04-25T21:57:50;3.57;;;1.77;;
15285;SDS011;7744;52.172;10.668;2023-04-25T22:00:17;5.33;;;2.03;;
15285;SDS011;7744;52.172;10.668;2023-04-25T22:02:51;5.40;;;2.00;;
15285;SDS011;7744;52.172;10.668;2023-04-25T22:05:19;6.23;;;2.20;;
15285;SDS011;7744;52.172;10.668;2023-04-25T22:07:47;4.13;;;1.97;;
15285;SDS011;7744;52.172;10.668;2023-04-25T22:10:14;5.83;;;1.87;;
15285;SDS011;7744;52.172;10.668;2023-04-25T22:12:40;8.60;;;2.20;;
15285;SDS011;7744;52.172;10.668;2023-04-25T22:15:05;6.67;;;2.00;;
15285;SDS011;7744;52.172;10.668;2023-04-25T22:17:33;8.50;;;2.43;;
15285;SDS011;7744;52.172;10.668;2023-04-25T22:19:58;5.80;;;2.17;;
15285;SDS011;7744;52.172;10.668;2023-04-25T22:22:26;8.47;;;1.80;;
15285;SDS011;7744;52.172;10.668;2023-04-25T22:24:53;6.27;;;1.60;;
15285;SDS011;7744;52.172;10.668;2023-04-25T22:27:18;5.83;;;2.13;;
15285;SDS011;7744;52.172;10.668;2023-04-25T22:29:44;5.00;;;1.93;;
15285;SDS011;7744;52.172;10.668;2023-04-25T22:32:10;5.27;;;1.97;;
15285;SDS011;7744;52.172;10.668;2023-04-25T22:34:36;4.33;;;2.20;;
15285;SDS011;7744;52.172;10.668;2023-04-25T22:37:01;6.50;;;2.13;;
15285;SDS011;7744;52.172;10.668;2023-04-25T22:39:28;7.70;;;2.63;;
15285;SDS011;7744;52.172;10.668;2023-04-25T22:41:54;4.40;;;2.27;;
15285;SDS011;7744;52.172;10.668;2023-04-25T22:44:20;4.77;;;2.43;;
15285;SDS011;7744;52.172;10.668;2023-04-25T22:46:46;6.70;;;1.70;;
15285;SDS011;7744;52.172;10.668;2023-04-25T22:49:12;5.90;;;2.00;;
15285;SDS011;7744;52.172;10.668;2023-04-25T22:51:37;5.33;;;2.20;;
15285;SDS011;7744;52.172;10.668;2023-04-25T22:54:03;5.80;;;1.97;;
15285;SDS011;7744;52.172;10.668;2023-04-25T22:56:29;4.67;;;2.10;;
15285;SDS011;7744;52.172;10.668;2023-04-25T22:58:55;7.30;;;2.30;;
15285;SDS011;7744;52.172;10.668;2023-04-25T23:01:20;6.77;;;2.20;;
15285;SDS011;7744;52.172;10.668;2023-04-25T23:03:46;5.67;;;1.97;;
15285;SDS011;7744;52.172;10.668;2023-04-25T23:06:12;4.17;;;1.60;;
15285;SDS011;7744;52.172;10.668;2023-04-25T23:08:37;6.63;;;2.33;;
15285;SDS011;7744;52.172;10.668;2023-04-25T23:11:06;7.00;;;2.40;;
15285;SDS011;7744;52.172;10.668;2023-04-25T23:13:32;6.33;;;1.93;;
15285;SDS011;7744;52.172;10.668;2023-04-25T23:16:05;6.57;;;1.80;;
15285;SDS011;7744;52.172;10.668;2023-04-25T23:18:33;7.70;;;2.30;;
15285;SDS011;7744;52.172;10.668;2023-04-25T23:21:00;6.50;;;2.10;;
15285;SDS011;7744;52.172;10.668;2023-04-25T23:23:26;8.00;;;2.30;;
15285;SDS011;7744;52.172;10.668;2023-04-25T23:25:52;6.03;;;2.27;;
15285;SDS011;7744;52.172;10.668;2023-04-25T23:28:17;7.47;;;2.63;;
15285;SDS011;7744;52.172;10.668;2023-04-25T23:30:43;5.77;;;1.90;;
15285;SDS011;7744;52.172;10.668;2023-04-25T23:33:08;7.73;;;2.60;;
15285;SDS011;7744;52.172;10.668;2023-04-25T23:35:36;7.17;;;2.03;;
15285;SDS011;7744;52.172;10.668;2023-04-25T23:38:02;5.80;;;2.10;;
15285;SDS011;7744;52.172;10.668;2023-04-25T23:40:27;8.10;;;2.23;;
15285;SDS011;7744;52.172;10.668;2023-04-25T23:42:55;3.67;;;1.70;;
15285;SDS011;7744;52.172;10.668;2023-04-25T23:45:21;4.40;;;1.63;;
15285;SDS011;7744;52.172;10.668;2023-04-25T23:47:47;5.77;;;2.10;;
15285;SDS011;7744;52.172;10.668;2023-04-25T23:50:13;6.27;;;1.90;;
15285;SDS011;7744;52.172;10.668;2023-04-25T23:52:39;7.70;;;2.10;;
15285;SDS011;7744;52.172;10.668;2023-04-25T23:55:05;6.27;;;1.97;;
15285;SDS011;7744;52.172;10.668;2023-04-25T23:57:31;7.87;;;2.20;;
15285;SDS011;7744;52.172;10.668;2023-04-25T23:59:56;4.77;;;1.87;;
